Time;durP1;ratioP1;P1;durP2;ratioP2;P2;SDS_P1;SDS_P2;PMS_P1;PMS_P2;Temp;Humidity;BMP_temperature;BMP_pressure;BME280_temperature;BME280_humidity;BME280_pressure;Samples;Min_cycle;Max_cycle;Signal;HPM_P1;HPM_P2
2024/01/22 00:01:38;;;;;;;1.60;0.95;;;16.00;36.50;;;;;;5106011;27;45315;-67
2024/01/22 00:04:06;;;;;;;1.63;1.08;;;16.00;36.60;;;;;;5105835;27;45241;-67
2024/01/22 00:06:33;;;;;;;1.00;0.90;;;16.00;36.60;;;;;;5105688;27;46658;-66
2024/01/22 00:09:02;;;;;;;1.10;0.88;;;16.00;36.70;;;;;;5105754;27;45288;-67
2024/01/22 00:11:29;;;;;;;1.25;0.90;;;16.00;36.70;;;;;;5107498;27;45367;-67
2024/01/22 00:13:56;;;;;;;1.27;1.00;;;15.90;36.70;;;;;;5109322;27;45632;-67
2024/01/22 00:16:23;;;;;;;2.05;1.00;;;15.90;36.80;;;;;;5109310;27;47556;-67
2024/01/22 00:18:49;;;;;;;1.25;0.80;;;15.90;36.80;;;;;;5109020;27;45324;-67
2024/01/22 00:21:16;;;;;;;1.65;1.20;;;15.90;36.80;;;;;;5109141;27;45146;-67
2024/01/22 00:23:43;;;;;;;0.82;0.82;;;15.80;36.80;;;;;;5109208;27;45308;-66
2024/01/22 00:26:12;;;;;;;1.30;0.80;;;15.80;36.90;;;;;;5109311;27;45296;-66
2024/01/22 00:28:39;;;;;;;0.95;0.90;;;15.80;36.90;;;;;;5109106;27;45381;-66
2024/01/22 00:31:06;;;;;;;0.80;0.70;;;15.70;37.00;;;;;;5109142;27;45286;-66
2024/01/22 00:33:32;;;;;;;0.70;0.70;;;15.70;37.00;;;;;;5109035;27;45317;-66
2024/01/22 00:35:59;;;;;;;1.30;0.80;;;15.70;37.10;;;;;;5108846;27;46379;-66
2024/01/22 00:38:26;;;;;;;1.52;0.90;;;15.60;37.10;;;;;;5108862;27;45423;-66
2024/01/22 00:40:53;;;;;;;1.73;0.77;;;15.60;37.20;;;;;;5109006;27;45336;-66
2024/01/22 00:43:21;;;;;;;2.72;0.77;;;15.60;37.30;;;;;;5108906;27;45399;-66
2024/01/22 00:45:48;;;;;;;1.08;0.80;;;15.50;37.20;;;;;;5108723;27;45549;-66
2024/01/22 00:48:14;;;;;;;0.88;0.80;;;15.50;37.30;;;;;;5108855;27;45353;-66
2024/01/22 00:50:41;;;;;;;1.90;1.00;;;15.50;37.40;;;;;;5108989;27;45360;-66
2024/01/22 00:53:09;;;;;;;0.75;0.75;;;15.50;37.40;;;;;;5109115;27;45473;-66
2024/01/22 00:55:36;;;;;;;0.65;0.65;;;15.40;37.40;;;;;;5108745;27;46381;-66
2024/01/22 00:58:03;;;;;;;0.90;0.90;;;15.40;38.10;;;;;;5108582;27;45290;-66
2024/01/22 01:00:31;;;;;;;1.52;0.85;;;15.40;37.70;;;;;;5108839;27;45333;-66
2024/01/22 01:02:58;;;;;;;0.60;0.60;;;15.30;37.60;;;;;;5108558;27;45490;-66
2024/01/22 01:05:25;;;;;;;0.90;0.70;;;15.30;37.60;;;;;;5108276;27;46360;-66
2024/01/22 01:07:51;;;;;;;0.95;0.90;;;15.30;37.70;;;;;;5108375;27;45253;-66
2024/01/22 01:10:18;;;;;;;1.00;0.80;;;15.30;37.70;;;;;;5108604;27;45318;-66
2024/01/22 01:12:45;;;;;;;1.08;0.75;;;15.20;37.70;;;;;;5108787;27;45454;-66
2024/01/22 01:15:12;;;;;;;0.75;0.75;;;15.20;37.80;;;;;;5108150;27;45461;-66
2024/01/22 01:17:40;;;;;;;1.10;1.10;;;15.20;37.80;;;;;;5108168;27;45324;-66
2024/01/22 01:20:07;;;;;;;1.33;1.00;;;15.20;37.80;;;;;;5108481;27;45261;-66
2024/01/22 01:22:34;;;;;;;1.35;0.70;;;15.10;37.80;;;;;;5107976;27;45414;-66
2024/01/22 01:25:01;;;;;;;0.73;0.73;;;15.10;37.80;;;;;;5107898;27;47030;-66
2024/01/22 01:27:27;;;;;;;1.45;0.90;;;15.10;37.80;;;;;;5108089;27;45430;-66
2024/01/22 01:29:54;;;;;;;0.60;0.60;;;15.10;37.80;;;;;;5108163;27;45336;-66
2024/01/22 01:32:21;;;;;;;0.80;0.80;;;15.10;37.80;;;;;;5108513;27;45517;-66
2024/01/22 01:34:49;;;;;;;0.85;0.85;;;15.10;37.80;;;;;;5107879;27;46368;-66
2024/01/22 01:37:16;;;;;;;0.70;0.70;;;15.10;37.90;;;;;;5108128;27;45507;-66
2024/01/22 01:39:43;;;;;;;0.82;0.70;;;15.10;37.90;;;;;;5108001;27;45336;-65
2024/01/22 01:42:10;;;;;;;0.90;0.90;;;15.10;37.90;;;;;;5108260;27;45308;-66
2024/01/22 01:44:48;;;;;;;0.60;0.57;;;15.00;37.90;;;;;;5107665;27;46378;-66
2024/01/22 01:47:15;;;;;;;0.85;0.85;;;15.00;37.90;;;;;;5107927;27;45234;-66
2024/01/22 01:49:41;;;;;;;0.90;0.90;;;15.00;37.90;;;;;;5107966;27;45343;-66
2024/01/22 01:52:10;;;;;;;0.75;0.75;;;15.00;37.90;;;;;;5108219;27;45344;-66
2024/01/22 01:54:37;;;;;;;1.27;0.90;;;15.00;37.90;;;;;;5107350;27;45306;-66
2024/01/22 01:57:04;;;;;;;1.05;0.70;;;14.90;37.90;;;;;;5107789;27;45333;-66
2024/01/22 01:59:31;;;;;;;1.17;1.00;;;14.90;37.90;;;;;;5107787;27;45311;-66
2024/01/22 02:01:57;;;;;;;1.52;0.90;;;14.90;38.00;;;;;;5107919;27;45430;-66
2024/01/22 02:04:24;;;;;;;1.15;0.82;;;14.90;38.00;;;;;;5107225;27;46283;-66
2024/01/22 02:06:51;;;;;;;1.25;0.95;;;14.90;38.00;;;;;;5107600;27;45389;-66
2024/01/22 02:09:19;;;;;;;1.73;1.00;;;14.80;38.00;;;;;;5107594;27;45264;-66
2024/01/22 02:11:46;;;;;;;0.90;0.80;;;14.80;38.00;;;;;;5108079;27;45292;-66
2024/01/22 02:14:13;;;;;;;0.70;0.70;;;14.80;38.30;;;;;;5107058;27;46643;-66
2024/01/22 02:16:40;;;;;;;1.08;0.82;;;14.80;38.10;;;;;;5107425;27;45502;-66
2024/01/22 02:19:07;;;;;;;1.08;0.80;;;14.70;38.70;;;;;;5107790;27;45392;-66
2024/01/22 02:21:33;;;;;;;0.82;0.82;;;14.80;38.10;;;;;;5107639;27;45509;-66
2024/01/22 02:24:02;;;;;;;0.68;0.60;;;14.70;38.10;;;;;;5106956;27;45482;-66
2024/01/22 02:26:29;;;;;;;0.80;0.80;;;14.70;38.20;;;;;;5107252;27;45422;-67
2024/01/22 02:28:55;;;;;;;1.25;0.80;;;14.70;38.20;;;;;;5107320;27;45442;-68
2024/01/22 02:31:22;;;;;;;0.70;0.70;;;14.70;38.20;;;;;;5107424;27;45367;-67
2024/01/22 02:33:49;;;;;;;0.80;0.80;;;14.70;38.20;;;;;;5106954;27;46664;-68
2024/01/22 02:36:16;;;;;;;1.02;0.90;;;14.70;38.20;;;;;;5105843;27;45260;-67
2024/01/22 02:38:43;;;;;;;1.08;0.90;;;14.70;38.20;;;;;;5107207;27;45315;-67
2024/01/22 02:41:11;;;;;;;1.65;0.60;;;14.70;38.10;;;;;;5107329;27;45367;-67
2024/01/22 02:43:38;;;;;;;0.82;0.68;;;14.70;38.20;;;;;;5106621;27;45373;-67
2024/01/22 02:46:05;;;;;;;0.68;0.63;;;14.60;38.10;;;;;;5107027;27;45325;-67
2024/01/22 02:48:32;;;;;;;1.20;1.10;;;14.60;38.10;;;;;;5107143;27;45327;-67
2024/01/22 02:50:58;;;;;;;1.02;0.90;;;14.60;38.20;;;;;;5107205;27;45346;-67
2024/01/22 02:53:25;;;;;;;1.00;0.88;;;14.50;38.20;;;;;;5106386;27;46371;-67
2024/01/22 02:55:52;;;;;;;1.10;1.00;;;14.50;38.30;;;;;;5106640;27;45273;-67
2024/01/22 02:58:20;;;;;;;1.27;1.17;;;14.50;38.30;;;;;;5106737;27;45532;-68
2024/01/22 03:00:47;;;;;;;1.20;1.00;;;14.50;38.40;;;;;;5106931;27;45360;-68
2024/01/22 03:03:14;;;;;;;0.60;0.60;;;14.50;38.40;;;;;;5106303;27;45459;-67
2024/01/22 03:05:41;;;;;;;1.52;0.90;;;14.50;38.40;;;;;;5106577;27;45414;-67
2024/01/22 03:08:08;;;;;;;1.23;0.70;;;14.50;38.40;;;;;;5106704;27;45414;-65
2024/01/22 03:10:35;;;;;;;1.02;0.63;;;14.50;38.50;;;;;;5106926;27;45253;-67
2024/01/22 03:13:02;;;;;;;0.77;0.60;;;14.40;38.40;;;;;;5106226;27;46456;-67
2024/01/22 03:15:30;;;;;;;2.05;0.80;;;14.50;38.40;;;;;;5106370;27;45398;-67
2024/01/22 03:17:57;;;;;;;0.77;0.77;;;14.40;38.40;;;;;;5106532;27;45411;-67
2024/01/22 03:20:23;;;;;;;1.20;0.80;;;14.40;38.50;;;;;;5106961;27;45229;-67
2024/01/22 03:22:50;;;;;;;0.73;0.70;;;14.40;39.10;;;;;;5105919;27;46315;-67
2024/01/22 03:25:17;;;;;;;0.60;0.60;;;14.40;38.50;;;;;;5106131;27;45461;-67
2024/01/22 03:27:44;;;;;;;1.30;0.60;;;14.40;38.40;;;;;;5106628;27;45390;-67
2024/01/22 03:30:12;;;;;;;0.80;0.80;;;14.40;38.50;;;;;;5106501;27;45418;-67
2024/01/22 03:32:40;;;;;;;0.80;0.57;;;14.40;38.40;;;;;;5106564;27;47988;-67
2024/01/22 03:35:08;;;;;;;0.57;0.57;;;14.40;38.40;;;;;;5106076;27;45462;-67
2024/01/22 03:37:35;;;;;;;0.70;0.70;;;14.40;38.50;;;;;;5106518;27;45447;-67
2024/01/22 03:40:02;;;;;;;0.65;0.65;;;14.40;38.50;;;;;;5106392;27;45539;-67
2024/01/22 03:42:28;;;;;;;1.15;0.90;;;14.40;38.50;;;;;;5105782;27;47449;-67
2024/01/22 03:44:55;;;;;;;0.65;0.65;;;14.30;38.50;;;;;;5105819;27;45364;-67
2024/01/22 03:47:22;;;;;;;0.63;0.63;;;14.30;38.50;;;;;;5105670;27;45367;-66
2024/01/22 03:49:50;;;;;;;0.60;0.60;;;14.30;38.50;;;;;;5103657;27;45446;-66
2024/01/22 03:52:17;;;;;;;0.95;0.80;;;14.30;38.50;;;;;;5105853;27;45309;-67
2024/01/22 03:54:44;;;;;;;0.57;0.57;;;14.40;38.50;;;;;;5105569;27;45329;-67
2024/01/22 03:57:11;;;;;;;0.70;0.70;;;14.40;38.40;;;;;;5106014;27;45391;-67
2024/01/22 03:59:37;;;;;;;0.70;0.70;;;14.40;38.40;;;;;;5106345;27;45391;-66
2024/01/22 04:02:05;;;;;;;0.80;0.80;;;14.40;38.50;;;;;;5105759;27;45738;-67
2024/01/22 04:04:31;;;;;;;0.63;0.50;;;14.30;38.40;;;;;;5105409;27;45459;-66
2024/01/22 04:07:00;;;;;;;0.70;0.70;;;14.30;38.40;;;;;;5105882;27;45335;-67
2024/01/22 04:09:26;;;;;;;0.60;0.60;;;14.30;38.50;;;;;;5106041;27;45356;-66
2024/01/22 04:11:53;;;;;;;0.73;0.60;;;14.30;38.40;;;;;;5105830;27;45610;-66
2024/01/22 04:14:20;;;;;;;0.70;0.70;;;14.40;38.40;;;;;;5105290;27;45451;-66
2024/01/22 04:16:47;;;;;;;0.80;0.80;;;14.50;38.30;;;;;;5105898;27;45308;-66
2024/01/22 04:19:13;;;;;;;0.80;0.80;;;14.60;38.10;;;;;;5105945;27;45306;-66
2024/01/22 04:21:45;;;;;;;0.65;0.57;;;14.70;38.00;;;;;;5105560;27;46405;-66
2024/01/22 04:24:13;;;;;;;0.65;0.60;;;14.70;37.80;;;;;;5104985;27;45309;-67
2024/01/22 04:26:40;;;;;;;0.93;0.80;;;14.80;37.60;;;;;;5105771;27;45310;-66
2024/01/22 04:29:06;;;;;;;0.50;0.50;;;14.90;37.50;;;;;;5106038;27;45324;-67
2024/01/22 04:31:33;;;;;;;0.80;0.60;;;15.10;37.40;;;;;;5105309;27;45361;-66
2024/01/22 04:34:00;;;;;;;0.93;0.52;;;15.10;37.20;;;;;;5105130;27;45519;-66
2024/01/22 04:36:27;;;;;;;1.27;0.50;;;15.30;37.00;;;;;;5105588;27;45464;-67
2024/01/22 04:38:54;;;;;;;0.70;0.60;;;15.40;36.80;;;;;;5105649;27;45517;-66
2024/01/22 04:41:23;;;;;;;0.57;0.57;;;15.50;36.60;;;;;;5104368;27;45288;-67
2024/01/22 04:43:49;;;;;;;0.50;0.50;;;15.60;36.50;;;;;;5104849;27;45373;-66
2024/01/22 04:46:16;;;;;;;0.47;0.47;;;15.80;36.30;;;;;;5105464;27;45323;-66
2024/01/22 04:48:43;;;;;;;0.70;0.70;;;15.90;36.10;;;;;;5105640;27;45411;-66
2024/01/22 04:51:10;;;;;;;0.50;0.50;;;16.00;35.90;;;;;;5105214;27;45528;-67
2024/01/22 04:53:37;;;;;;;0.63;0.60;;;16.20;35.70;;;;;;5104874;27;45340;-67
2024/01/22 04:56:04;;;;;;;0.50;0.50;;;16.30;35.60;;;;;;5105234;27;45332;-67
2024/01/22 04:58:32;;;;;;;0.50;0.50;;;16.40;35.30;;;;;;5106447;27;45407;-67
2024/01/22 05:00:59;;;;;;;0.38;0.35;;;16.50;35.10;;;;;;5108573;27;46394;-67
2024/01/22 05:03:26;;;;;;;0.50;0.50;;;16.60;35.00;;;;;;5108245;27;45269;-67
2024/01/22 05:05:53;;;;;;;0.82;0.57;;;16.80;34.90;;;;;;5108518;27;45405;-67
2024/01/22 05:08:20;;;;;;;0.57;0.57;;;16.80;34.70;;;;;;5108864;27;45390;-67
2024/01/22 05:10:47;;;;;;;1.02;0.52;;;16.90;34.60;;;;;;5108566;27;47545;-67
2024/01/22 05:13:14;;;;;;;0.50;0.50;;;17.00;34.40;;;;;;5108229;27;45277;-67
2024/01/22 05:15:43;;;;;;;0.57;0.57;;;17.10;34.30;;;;;;5108498;27;45241;-67
2024/01/22 05:18:09;;;;;;;0.50;0.50;;;17.20;34.20;;;;;;5108716;27;45355;-67
2024/01/22 05:20:36;;;;;;;2.40;0.75;;;17.30;34.10;;;;;;5108396;27;45396;-67
2024/01/22 05:23:03;;;;;;;1.05;0.32;;;17.40;34.10;;;;;;5107950;27;45280;-67
2024/01/22 05:25:30;;;;;;;0.65;0.50;;;17.40;33.90;;;;;;5108447;27;45553;-67
2024/01/22 05:27:57;;;;;;;0.65;0.57;;;17.50;33.90;;;;;;5108592;27;45311;-67
2024/01/22 05:30:24;;;;;;;0.30;0.30;;;17.50;33.70;;;;;;5108136;27;46266;-67
2024/01/22 05:32:52;;;;;;;0.60;0.60;;;17.60;33.70;;;;;;5107992;27;45389;-67
2024/01/22 05:35:19;;;;;;;0.50;0.40;;;17.70;33.70;;;;;;5108152;27;45294;-66
2024/01/22 05:37:48;;;;;;;0.35;0.35;;;17.70;33.60;;;;;;5108382;27;45269;-67
2024/01/22 05:40:16;;;;;;;0.43;0.43;;;17.70;33.50;;;;;;5108097;27;45647;-67
2024/01/22 05:42:43;;;;;;;0.57;0.57;;;17.80;33.50;;;;;;5107704;27;45375;-65
2024/01/22 05:45:10;;;;;;;0.88;0.60;;;17.80;33.40;;;;;;5108003;27;45351;-67
2024/01/22 05:47:37;;;;;;;0.43;0.43;;;17.90;33.40;;;;;;5108147;27;45432;-67
2024/01/22 05:50:07;;;;;;;0.57;0.47;;;17.90;33.30;;;;;;5108051;27;46406;-67
2024/01/22 05:52:33;;;;;;;1.20;0.70;;;18.00;33.30;;;;;;5107845;27;45401;-68
2024/01/22 05:55:01;;;;;;;0.47;0.47;;;18.00;33.20;;;;;;5107809;27;45487;-65
2024/01/22 05:57:27;;;;;;;0.40;0.40;;;18.10;33.20;;;;;;5108009;27;45286;-67
2024/01/22 05:59:54;;;;;;;0.65;0.60;;;18.10;33.10;;;;;;5107864;27;46323;-67
2024/01/22 06:02:21;;;;;;;0.65;0.60;;;18.20;33.10;;;;;;5105281;27;45655;-67
2024/01/22 06:04:48;;;;;;;0.55;0.55;;;18.20;33.10;;;;;;5107393;27;45447;-67
2024/01/22 06:07:16;;;;;;;0.40;0.40;;;18.20;33.00;;;;;;5108067;27;45310;-67
2024/01/22 06:09:43;;;;;;;0.93;0.70;;;18.20;33.00;;;;;;5107150;27;45399;-67
2024/01/22 06:12:10;;;;;;;0.50;0.40;;;18.30;32.90;;;;;;5107464;27;45446;-67
2024/01/22 06:14:36;;;;;;;1.70;0.50;;;18.30;32.90;;;;;;5107522;27;45371;-67
2024/01/22 06:17:04;;;;;;;0.57;0.57;;;18.30;32.80;;;;;;5107643;27;45317;-67
2024/01/22 06:19:30;;;;;;;0.77;0.50;;;18.40;32.80;;;;;;5107273;27;45316;-66
2024/01/22 06:21:58;;;;;;;0.50;0.50;;;18.40;32.80;;;;;;5107335;27;45307;-66
2024/01/22 06:24:26;;;;;;;0.55;0.55;;;18.40;32.80;;;;;;5107201;27;45410;-67
2024/01/22 06:26:53;;;;;;;0.55;0.55;;;18.50;32.70;;;;;;5107574;27;45386;-67
2024/01/22 06:29:20;;;;;;;0.85;0.60;;;18.50;32.60;;;;;;5107316;27;46573;-67
2024/01/22 06:31:47;;;;;;;0.75;0.50;;;18.60;32.70;;;;;;5107248;27;45382;-67
2024/01/22 06:34:14;;;;;;;1.88;0.50;;;18.60;32.60;;;;;;5106821;27;45327;-67
2024/01/22 06:36:40;;;;;;;0.80;0.60;;;18.60;32.60;;;;;;5107420;27;45474;-67
2024/01/22 06:39:08;;;;;;;0.60;0.60;;;18.70;32.50;;;;;;5107117;27;45480;-67
2024/01/22 06:41:36;;;;;;;2.05;0.60;;;18.70;32.50;;;;;;5106809;27;45321;-67
2024/01/22 06:44:03;;;;;;;0.70;0.68;;;18.70;32.40;;;;;;5106892;27;45310;-67
2024/01/22 06:46:30;;;;;;;0.70;0.50;;;18.70;32.40;;;;;;5107083;27;45451;-67
2024/01/22 06:48:56;;;;;;;0.93;0.60;;;18.80;32.40;;;;;;5107047;27;45519;-67
2024/01/22 06:51:23;;;;;;;5.40;0.93;;;18.70;32.10;;;;;;5106546;27;45466;-66
2024/01/22 06:53:50;;;;;;;0.95;0.70;;;18.80;32.20;;;;;;5106577;27;45364;-68
2024/01/22 06:56:17;;;;;;;0.60;0.60;;;18.90;32.40;;;;;;5106764;27;45348;-66
2024/01/22 06:58:45;;;;;;;0.95;0.55;;;19.00;32.20;;;;;;5106486;27;46378;-66
2024/01/22 07:01:14;;;;;;;1.05;0.55;;;19.00;32.00;;;;;;5106931;27;45310;-65
2024/01/22 07:03:40;;;;;;;0.93;0.73;;;19.10;32.10;;;;;;5106416;27;45394;-65
2024/01/22 07:06:07;;;;;;;0.40;0.40;;;19.10;32.00;;;;;;5107163;27;45277;-67
2024/01/22 07:08:34;;;;;;;0.47;0.47;;;19.10;31.90;;;;;;5106564;27;45394;-66
2024/01/22 07:11:01;;;;;;;5.93;1.00;;;19.20;32.00;;;;;;5106887;27;45313;-66
2024/01/22 07:13:29;;;;;;;0.70;0.70;;;19.30;32.00;;;;;;5106444;27;45323;-66
2024/01/22 07:15:57;;;;;;;0.88;0.73;;;19.30;32.10;;;;;;5106875;27;45326;-66
2024/01/22 07:18:24;;;;;;;9.88;1.58;;;19.40;32.20;;;;;;5091195;27;46574;-67
2024/01/22 07:20:51;;;;;;;1.33;0.68;;;19.50;32.70;;;;;;5085885;27;45336;-64
2024/01/22 07:23:17;;;;;;;3.63;0.65;;;19.60;33.10;;;;;;5099186;27;45371;-67
2024/01/22 07:25:44;;;;;;;2.55;0.60;;;19.60;32.10;;;;;;5106397;27;45645;-67
2024/01/22 07:28:11;;;;;;;3.17;0.80;;;19.70;31.90;;;;;;5104075;27;45307;-74
2024/01/22 07:30:38;;;;;;;0.60;0.60;;;19.70;31.60;;;;;;5106231;27;46085;-67
2024/01/22 07:33:06;;;;;;;1.27;0.63;;;19.70;31.60;;;;;;5106156;27;45404;-68
2024/01/22 07:35:33;;;;;;;0.70;0.68;;;19.70;31.60;;;;;;5106063;27;45369;-66
2024/01/22 07:38:00;;;;;;;0.93;0.63;;;19.80;31.60;;;;;;5105896;27;46833;-68
2024/01/22 07:40:27;;;;;;;1.42;0.70;;;19.80;31.50;;;;;;5105447;27;45344;-67
2024/01/22 07:42:54;;;;;;;2.17;0.70;;;19.90;31.60;;;;;;5105630;27;45272;-67
2024/01/22 07:45:21;;;;;;;0.77;0.60;;;19.90;31.50;;;;;;5103479;27;45411;-68
2024/01/22 07:47:49;;;;;;;2.17;0.88;;;19.90;31.50;;;;;;5105680;27;45227;-69
2024/01/22 07:50:17;;;;;;;7.95;0.65;;;19.90;31.50;;;;;;5105483;27;45344;-69
2024/01/22 07:52:44;;;;;;;1.35;0.75;;;19.90;31.60;;;;;;5106257;27;45271;-71
2024/01/22 07:55:13;;;;;;;0.77;0.55;;;19.90;31.50;;;;;;5095041;27;45711;-69
2024/01/22 07:57:40;;;;;;;1.25;0.65;;;20.00;31.60;;;;;;5092006;27;45498;-68
2024/01/22 08:00:11;;;;;;;0.70;0.50;;;20.00;32.20;;;;;;5085623;28;45373;-69
2024/01/22 08:02:38;;;;;;;16.60;2.13;;;20.00;31.70;;;;;;5083336;28;45439;-66
2024/01/22 08:05:05;;;;;;;1.20;0.70;;;20.00;31.50;;;;;;5082379;28;45487;-69
2024/01/22 08:07:33;;;;;;;1.02;0.80;;;20.10;31.60;;;;;;5077126;28;45868;-69
2024/01/22 08:10:00;;;;;;;1.10;0.60;;;20.10;31.50;;;;;;5084570;28;45364;-66
2024/01/22 08:12:27;;;;;;;0.65;0.65;;;20.10;31.60;;;;;;5084227;28;45497;-69
2024/01/22 08:14:54;;;;;;;0.88;0.80;;;20.10;31.60;;;;;;5084939;28;45319;-70
2024/01/22 08:17:21;;;;;;;3.30;0.80;;;20.10;31.70;;;;;;5084314;28;45460;-67
2024/01/22 08:19:47;;;;;;;1.70;0.73;;;20.00;31.80;;;;;;5084270;28;45335;-66
2024/01/22 08:22:14;;;;;;;1.45;0.77;;;20.00;31.70;;;;;;5084001;28;45363;-66
2024/01/22 08:24:42;;;;;;;4.03;1.23;;;20.00;31.90;;;;;;5085007;28;45375;-66
2024/01/22 08:27:09;;;;;;;3.25;1.00;;;20.00;32.30;;;;;;5083849;27;46699;-66
2024/01/22 08:29:36;;;;;;;1.73;0.90;;;19.90;32.20;;;;;;5071443;27;45306;-64
2024/01/22 08:32:03;;;;;;;1.45;1.27;;;19.90;32.80;;;;;;5075555;27;45262;-66
2024/01/22 08:34:30;;;;;;;1.30;1.20;;;19.90;32.30;;;;;;5084108;27;45455;-66
2024/01/22 08:36:57;;;;;;;1.13;1.10;;;19.80;32.40;;;;;;5089965;27;46465;-67
2024/01/22 08:39:24;;;;;;;3.92;1.70;;;19.80;32.50;;;;;;5102174;27;45432;-67
2024/01/22 08:41:52;;;;;;;1.38;1.20;;;19.70;32.70;;;;;;5090292;27;45425;-66
2024/01/22 08:44:19;;;;;;;2.80;1.23;;;19.60;32.90;;;;;;5075972;27;45416;-66
2024/01/22 08:46:47;;;;;;;3.80;1.33;;;19.50;33.00;;;;;;5077772;27;45584;-66
2024/01/22 08:49:15;;;;;;;2.85;1.60;;;19.50;33.30;;;;;;5078957;27;45520;-65
2024/01/22 08:51:44;;;;;;;5.07;1.42;;;19.50;33.20;;;;;;5080695;28;45509;-66
2024/01/22 08:54:12;;;;;;;4.65;1.60;;;19.40;33.40;;;;;;5077966;28;45534;-65
2024/01/22 08:56:40;;;;;;;4.10;1.58;;;19.40;33.40;;;;;;5079015;28;45925;-66
2024/01/22 08:59:08;;;;;;;6.72;1.30;;;19.40;33.60;;;;;;5080659;28;45436;-66
2024/01/22 09:01:36;;;;;;;3.08;1.60;;;19.30;33.60;;;;;;5080495;28;45490;-66
2024/01/22 09:04:06;;;;;;;4.00;1.50;;;19.30;33.70;;;;;;5079278;28;45809;-66
2024/01/22 09:06:34;;;;;;;2.97;1.35;;;19.20;33.90;;;;;;5078011;28;46703;-66
2024/01/22 09:09:05;;;;;;;1.70;1.38;;;19.20;33.90;;;;;;5080668;28;45536;-66
2024/01/22 09:11:33;;;;;;;3.40;1.30;;;19.30;33.90;;;;;;5080565;28;46158;-66
2024/01/22 09:14:01;;;;;;;7.47;1.52;;;19.30;33.90;;;;;;5080432;28;45554;-66
2024/01/22 09:16:31;;;;;;;3.00;1.58;;;19.30;33.80;;;;;;5078420;28;45515;-66
2024/01/22 09:18:59;;;;;;;4.05;1.42;;;19.40;33.70;;;;;;5080161;28;45553;-66
2024/01/22 09:21:27;;;;;;;2.00;1.77;;;19.50;33.70;;;;;;5078256;28;45692;-66
2024/01/22 09:23:54;;;;;;;3.97;1.40;;;19.50;33.60;;;;;;5079315;28;45605;-66
2024/01/22 09:26:21;;;;;;;2.05;1.30;;;19.60;33.50;;;;;;5077309;28;46331;-66
2024/01/22 09:28:48;;;;;;;2.80;1.60;;;19.70;33.50;;;;;;5079697;28;45850;-66
2024/01/22 09:31:15;;;;;;;4.60;2.00;;;19.70;33.40;;;;;;5077627;28;46115;-66
2024/01/22 09:33:43;;;;;;;3.63;1.55;;;19.70;33.40;;;;;;5078043;28;45792;-66
2024/01/22 09:36:10;;;;;;;4.05;1.80;;;19.80;33.40;;;;;;5077012;28;45482;-66
2024/01/22 09:38:39;;;;;;;1.77;1.48;;;19.80;33.40;;;;;;5080034;28;45296;-65
2024/01/22 09:41:06;;;;;;;3.85;1.45;;;19.90;33.60;;;;;;5079201;28;45474;-65
2024/01/22 09:43:33;;;;;;;4.80;1.63;;;19.90;33.60;;;;;;5079880;28;45502;-66
2024/01/22 09:46:00;;;;;;;2.45;1.50;;;19.90;33.50;;;;;;5077309;28;46404;-66
2024/01/22 09:48:29;;;;;;;2.08;1.50;;;20.00;33.70;;;;;;5079232;28;45491;-66
2024/01/22 09:50:57;;;;;;;4.05;1.75;;;20.00;33.70;;;;;;5079499;28;45863;-66
2024/01/22 09:53:24;;;;;;;3.85;1.90;;;20.00;33.80;;;;;;5079108;28;45642;-66
2024/01/22 09:55:51;;;;;;;5.78;1.73;;;20.00;33.70;;;;;;5077641;28;45480;-66
2024/01/22 09:58:21;;;;;;;3.25;1.73;;;20.10;33.70;;;;;;5077566;28;45399;-64
2024/01/22 10:00:48;;;;;;;6.68;1.70;;;20.10;33.60;;;;;;5077962;28;45546;-66
2024/01/22 10:03:15;;;;;;;6.13;1.88;;;20.10;33.70;;;;;;5078966;28;46204;-66
2024/01/22 10:05:42;;;;;;;8.32;1.75;;;20.10;33.60;;;;;;5077791;28;46731;-64
2024/01/22 10:08:10;;;;;;;3.50;1.80;;;20.20;33.70;;;;;;5077970;28;45447;-66
2024/01/22 10:10:38;;;;;;;11.60;2.55;;;20.20;33.60;;;;;;5079222;28;45535;-64
2024/01/22 10:13:07;;;;;;;3.83;1.80;;;20.10;33.60;;;;;;5079365;28;45451;-65
2024/01/22 10:15:34;;;;;;;4.97;1.85;;;20.20;34.30;;;;;;5078840;28;47301;-66
2024/01/22 10:18:11;;;;;;;6.28;1.80;;;20.20;34.00;;;;;;5077598;28;45508;-65
2024/01/22 10:20:38;;;;;;;4.75;1.80;;;20.20;34.00;;;;;;5079242;28;45557;-64
2024/01/22 10:23:05;;;;;;;2.63;2.10;;;20.20;33.80;;;;;;5079072;28;45930;-66
2024/01/22 10:25:33;;;;;;;6.03;2.53;;;20.20;33.80;;;;;;5078644;28;46440;-66
2024/01/22 10:28:08;;;;;;;2.30;2.10;;;20.20;34.00;;;;;;5077695;28;46159;-64
2024/01/22 10:30:36;;;;;;;3.08;2.28;;;20.20;33.90;;;;;;5079697;28;45532;-65
2024/01/22 10:33:11;;;;;;;4.85;2.17;;;20.30;34.10;;;;;;5079368;28;45488;-66
2024/01/22 10:35:37;;;;;;;3.13;2.33;;;20.30;34.00;;;;;;5079143;28;45554;-67
2024/01/22 10:38:11;;;;;;;7.43;2.65;;;20.30;34.00;;;;;;5077939;28;45543;-67
2024/01/22 10:40:39;;;;;;;8.20;2.35;;;20.30;34.10;;;;;;5079369;28;45522;-66
2024/01/22 10:43:24;;;;;;;15.68;2.70;;;20.20;34.30;;;;;;5085842;28;45303;-66
2024/01/22 10:45:50;;;;;;;10.52;2.65;;;20.20;34.90;;;;;;5086123;28;48024;-66
2024/01/22 10:48:17;;;;;;;5.85;2.70;;;20.20;34.80;;;;;;5086481;28;45273;-65
2024/01/22 10:50:44;;;;;;;5.47;3.03;;;20.10;34.80;;;;;;5085907;28;45316;-66
2024/01/22 10:53:11;;;;;;;8.68;2.80;;;20.10;34.60;;;;;;5086141;28;45441;-66
2024/01/22 10:55:39;;;;;;;4.10;2.78;;;20.20;34.60;;;;;;5085262;28;46408;-66
2024/01/22 10:58:12;;;;;;;5.38;3.05;;;20.20;34.60;;;;;;5085671;28;45331;-65
2024/01/22 11:00:43;;;;;;;8.20;2.72;;;20.20;35.10;;;;;;5086335;28;45390;-65
2024/01/22 11:03:10;;;;;;;324.98;20.77;;;20.20;35.20;;;;;;5086237;28;45398;-67
2024/01/22 11:05:36;;;;;;;16.98;3.03;;;20.10;35.80;;;;;;5085744;28;45356;-66
2024/01/22 11:08:03;;;;;;;13.10;2.50;;;20.10;35.60;;;;;;5085893;28;45421;-66
2024/01/22 11:10:30;;;;;;;17.70;2.13;;;20.00;36.60;;;;;;5086105;28;45380;-66
2024/01/22 11:12:59;;;;;;;8.10;2.47;;;19.90;37.30;;;;;;5086175;28;45347;-66
2024/01/22 11:15:25;;;;;;;9.50;2.25;;;19.90;37.30;;;;;;5086026;28;45324;-66
2024/01/22 11:17:52;;;;;;;18.10;6.45;;;19.80;36.90;;;;;;5085767;28;45305;-66
2024/01/22 11:20:20;;;;;;;5.65;2.80;;;19.80;36.90;;;;;;5085649;28;45395;-65
2024/01/22 11:22:58;;;;;;;5.63;2.30;;;19.80;36.80;;;;;;5085538;28;45444;-66
2024/01/22 11:25:25;;;;;;;10.25;2.78;;;19.70;36.70;;;;;;5085254;28;46661;-66
2024/01/22 11:27:53;;;;;;;12.85;2.72;;;19.70;37.10;;;;;;5085695;28;45371;-66
2024/01/22 11:30:34;;;;;;;9.18;2.42;;;19.70;37.50;;;;;;5085979;28;45406;-66
2024/01/22 11:33:00;;;;;;;7.95;1.55;;;19.70;37.80;;;;;;5086336;28;45432;-66
2024/01/22 11:35:34;;;;;;;3.05;1.80;;;19.60;38.70;;;;;;5085374;28;46387;-65
2024/01/22 11:38:02;;;;;;;3.53;1.98;;;19.60;38.80;;;;;;5085152;28;45352;-66
2024/01/22 11:40:48;;;;;;;3.50;2.03;;;19.60;38.30;;;;;;5085356;28;45463;-65
2024/01/22 11:43:15;;;;;;;5.63;2.03;;;19.60;38.10;;;;;;5085532;28;45586;-65
2024/01/22 11:45:44;;;;;;;5.05;1.67;;;19.70;38.10;;;;;;5085037;28;45400;-66
2024/01/22 11:48:16;;;;;;;5.13;2.20;;;19.70;37.90;;;;;;5085265;28;45284;-66
2024/01/22 11:50:43;;;;;;;4.85;1.73;;;19.80;37.70;;;;;;5085487;28;45309;-66
2024/01/22 11:53:09;;;;;;;3.85;2.45;;;19.90;37.60;;;;;;5085681;28;45538;-66
2024/01/22 11:55:37;;;;;;;3.35;2.35;;;19.90;37.90;;;;;;5085342;28;45531;-66
2024/01/22 11:58:09;;;;;;;4.45;2.25;;;20.00;37.90;;;;;;5085529;28;45347;-66
2024/01/22 12:00:36;;;;;;;6.38;2.47;;;20.00;37.60;;;;;;5085666;28;45287;-65
2024/01/22 12:03:04;;;;;;;3.17;2.05;;;20.10;37.40;;;;;;5085712;28;45487;-65
2024/01/22 12:05:31;;;;;;;5.15;2.13;;;20.10;37.30;;;;;;5085133;28;46669;-65
2024/01/22 12:07:58;;;;;;;4.57;2.10;;;20.10;37.20;;;;;;5087100;27;45248;-65
2024/01/22 12:10:25;;;;;;;4.07;2.10;;;20.20;37.20;;;;;;5089208;28;45400;-66
2024/01/22 12:12:53;;;;;;;2.78;2.05;;;20.20;37.00;;;;;;5089105;28;45356;-66
2024/01/22 12:15:21;;;;;;;2.13;2.03;;;20.30;37.00;;;;;;5088817;28;46949;-65
2024/01/22 12:17:48;;;;;;;3.50;1.92;;;20.30;36.90;;;;;;5088903;28;45400;-65
2024/01/22 12:20:16;;;;;;;12.55;2.20;;;20.30;36.80;;;;;;5089108;28;45304;-67
2024/01/22 12:22:43;;;;;;;4.20;2.38;;;20.30;36.80;;;;;;5089113;28;45459;-70
2024/01/22 12:25:12;;;;;;;3.30;2.38;;;20.40;36.80;;;;;;5088377;28;46416;-66
2024/01/22 12:27:39;;;;;;;3.85;1.88;;;20.40;36.80;;;;;;5088609;28;45346;-67
2024/01/22 12:30:06;;;;;;;2.90;1.90;;;20.40;36.60;;;;;;5088898;28;45277;-69
2024/01/22 12:32:35;;;;;;;1.83;1.70;;;20.50;36.70;;;;;;5088657;28;45375;-67
2024/01/22 12:35:02;;;;;;;5.25;2.40;;;20.50;36.40;;;;;;5088495;28;46394;-68
2024/01/22 12:37:30;;;;;;;3.13;2.00;;;20.50;36.40;;;;;;5088374;28;45351;-68
2024/01/22 12:40:14;;;;;;;6.00;2.20;;;20.50;36.40;;;;;;5088351;28;45301;-68
2024/01/22 12:42:42;;;;;;;3.38;1.92;;;20.50;36.30;;;;;;5088491;28;45360;-69
2024/01/22 12:45:11;;;;;;;2.00;1.80;;;20.50;36.50;;;;;;5088190;28;45478;-68
2024/01/22 12:47:37;;;;;;;2.28;1.65;;;20.50;36.50;;;;;;5088189;28;45435;-69